Time;durP1;ratioP1;P1;durP2;ratioP2;P2;SDS_P1;SDS_P2;PMS_P1;PMS_P2;Temp;Humidity;BMP_temperature;BMP_pressure;BME280_temperature;BME280_humidity;BME280_pressure;Samples;Min_cycle;Max_cycle;Signal;HPM_P1;HPM_P2
2022/12/03 00:00:42;;;;;;;4.70;3.70;;;;;;;4.22;90.52;95421.88;4364589;32;20284;-61
2022/12/03 00:03:09;;;;;;;4.07;3.87;;;;;;;4.40;89.83;95415.44;4362937;32;20300;-61
2022/12/03 00:05:37;;;;;;;1.40;1.40;;;;;;;4.40;89.23;95412.81;4356583;32;20230;-61
2022/12/03 00:08:03;;;;;;;3.40;3.23;;;;;;;4.47;88.52;95421.28;4372536;32;20288;-61
2022/12/03 00:10:29;;;;;;;5.40;4.90;;;;;;;4.35;88.78;95416.22;4358677;32;20376;-61
2022/12/03 00:12:55;;;;;;;4.53;4.23;;;;;;;4.30;89.20;95418.00;4383454;32;20296;-61
2022/12/03 00:15:20;;;;;;;3.60;3.30;;;;;;;4.41;88.98;95415.19;4361140;32;20204;-61
2022/12/03 00:17:47;;;;;;;9.07;3.93;;;;;;;4.40;88.82;95407.56;4358915;32;20272;-61
2022/12/03 00:20:23;;;;;;;3.97;3.53;;;;;;;4.35;88.82;95410.16;4369135;32;20242;-61
2022/12/03 00:22:51;;;;;;;3.53;3.23;;;;;;;4.43;89.01;95407.06;4344895;32;20296;-61
2022/12/03 00:25:17;;;;;;;3.83;3.63;;;;;;;4.41;88.31;95419.66;4350218;32;20282;-61
2022/12/03 00:27:44;;;;;;;3.30;3.20;;;;;;;4.35;87.99;95416.22;4334151;32;20372;-61
2022/12/03 00:30:14;;;;;;;4.20;3.90;;;;;;;4.50;87.99;95420.78;4363820;32;20359;-60
2022/12/03 00:32:40;;;;;;;3.57;3.33;;;;;;;4.14;88.11;95424.97;4364133;32;20280;-61
2022/12/03 00:35:07;;;;;;;2.93;2.73;;;;;;;4.17;88.25;95418.41;4368231;32;20335;-61
2022/12/03 00:37:34;;;;;;;2.40;2.30;;;;;;;4.06;88.65;95430.66;4368623;32;20196;-61
2022/12/03 00:40:03;;;;;;;2.67;2.43;;;;;;;4.07;88.40;95424.38;4367497;32;20275;-61
2022/12/03 00:42:30;;;;;;;7.30;4.40;;;;;;;4.10;88.84;95424.69;4348802;32;20280;-66
2022/12/03 00:44:57;;;;;;;3.53;3.40;;;;;;;4.19;88.77;95421.56;4370998;32;20276;-61
2022/12/03 00:47:23;;;;;;;3.30;3.10;;;;;;;4.18;88.55;95410.28;4353531;32;20335;-61
2022/12/03 00:49:50;;;;;;;3.97;3.70;;;;;;;4.22;88.64;95421.88;4372141;32;20280;-61
2022/12/03 00:52:15;;;;;;;4.40;4.10;;;;;;;4.19;88.83;95408.44;4363085;32;20305;-61
2022/12/03 00:54:41;;;;;;;3.87;3.67;;;;;;;4.20;88.64;95417.91;4342190;32;20291;-61
2022/12/03 00:57:08;;;;;;;3.43;3.13;;;;;;;3.91;89.54;95415.59;4358191;32;20196;-61
2022/12/03 00:59:33;;;;;;;3.03;2.93;;;;;;;4.01;89.02;95431.41;4375751;32;20280;-61
2022/12/03 01:01:59;;;;;;;5.77;3.93;;;;;;;4.20;88.69;95413.44;4371245;32;20295;-62
2022/12/03 01:04:25;;;;;;;4.33;4.03;;;;;;;4.22;88.31;95415.81;4373449;32;20184;-61
2022/12/03 01:06:53;;;;;;;4.80;4.17;;;;;;;4.20;88.53;95415.28;4356359;32;20457;-61
2022/12/03 01:09:20;;;;;;;3.83;3.63;;;;;;;4.27;87.99;95415.88;4339488;32;20361;-61
2022/12/03 01:11:45;;;;;;;4.40;4.10;;;;;;;3.81;88.72;95436.47;4358275;32;20343;-61
2022/12/03 01:14:13;;;;;;;3.30;3.00;;;;;;;3.78;89.69;95432.50;4354224;32;20299;-61
2022/12/03 01:16:40;;;;;;;4.47;4.13;;;;;;;3.98;88.65;95426.66;4380772;32;20207;-61
2022/12/03 01:19:07;;;;;;;4.10;3.80;;;;;;;3.92;89.17;95425.03;4353071;32;20336;-61
2022/12/03 01:21:33;;;;;;;2.73;2.57;;;;;;;3.95;89.17;95421.13;4365622;32;20287;-61
2022/12/03 01:24:00;;;;;;;2.93;2.83;;;;;;;4.00;88.38;95419.31;4371535;32;20289;-68
2022/12/03 01:26:27;;;;;;;2.90;2.73;;;;;;;4.04;88.64;95425.66;4369150;32;20216;-61
2022/12/03 01:28:52;;;;;;;2.87;2.67;;;;;;;3.93;88.58;95421.38;4365495;32;20400;-61
2022/12/03 01:34:05;;;;;;;4.03;3.73;;;;;;;3.69;90.13;95427.97;4372911;32;20232;-61
2022/12/03 01:36:35;;;;;;;5.20;3.37;;;;;;;3.86;89.47;95418.16;4368436;32;20295;-61
2022/12/03 01:39:01;;;;;;;4.80;4.43;;;;;;;3.86;89.88;95415.53;4365213;32;20326;-61
2022/12/03 01:41:30;;;;;;;3.40;3.10;;;;;;;3.94;89.68;95417.72;4369260;32;20289;-61
2022/12/03 01:43:57;;;;;;;4.30;3.97;;;;;;;3.81;89.74;95423.34;4354063;32;20285;-60
2022/12/03 01:46:30;;;;;;;6.00;3.93;;;;;;;3.78;90.11;95429.88;4336590;32;20279;-62
2022/12/03 01:48:56;;;;;;;4.77;4.47;;;;;;;3.82;89.97;95435.44;4359547;32;20369;-61
2022/12/03 01:51:22;;;;;;;6.20;4.63;;;;;;;3.85;89.96;95437.56;4367939;32;20296;-61
2022/12/03 01:53:56;;;;;;;3.83;3.57;;;;;;;3.82;90.02;95427.56;4352086;32;20298;-61
2022/12/03 01:56:23;;;;;;;6.03;4.63;;;;;;;4.00;89.09;95429.81;4340146;32;20418;-60
2022/12/03 01:58:50;;;;;;;3.43;3.23;;;;;;;3.85;89.30;95434.16;4337739;32;20586;-61
2022/12/03 02:01:20;;;;;;;3.13;2.87;;;;;;;3.64;89.75;95435.78;4354981;32;20296;-61
2022/12/03 02:03:46;;;;;;;4.13;3.93;;;;;;;3.59;89.31;95433.88;4345984;32;20299;-61
2022/12/03 02:06:19;;;;;;;3.90;3.63;;;;;;;3.65;89.11;95426.88;4331185;32;20296;-61
2022/12/03 02:08:47;;;;;;;4.13;3.73;;;;;;;3.72;88.32;95422.22;4358363;32;20281;-61
2022/12/03 02:11:43;;;;;;;5.93;3.97;;;;;;;3.71;88.33;95420.63;4334618;32;20399;-61
2022/12/03 02:14:15;;;;;;;2.97;2.63;;;;;;;3.53;88.69;95421.78;4348679;32;20335;-61
2022/12/03 02:16:42;;;;;;;4.03;3.73;;;;;;;3.59;88.76;95425.22;4354508;32;20281;-61
2022/12/03 02:19:21;;;;;;;2.77;2.57;;;;;;;3.52;89.62;95437.75;4361077;32;20312;-61
2022/12/03 02:21:58;;;;;;;3.80;3.50;;;;;;;3.56;89.38;95433.56;4327608;32;20344;-61
2022/12/03 02:24:46;;;;;;;3.90;2.50;;;;;;;3.51;89.40;95429.09;4363652;32;20305;-61
2022/12/03 02:27:12;;;;;;;4.80;4.40;;;;;;;3.71;88.99;95431.12;4349356;32;20272;-62
2022/12/03 02:29:38;;;;;;;2.43;2.27;;;;;;;3.64;89.45;95427.91;4365503;32;20277;-60
2022/12/03 02:32:07;;;;;;;2.90;2.70;;;;;;;3.58;89.35;95431.50;4349828;32;20296;-63
2022/12/03 02:34:44;;;;;;;4.03;3.23;;;;;;;3.40;90.22;95430.78;4371628;32;20193;-61
2022/12/03 02:37:21;;;;;;;4.50;2.37;;;;;;;3.68;89.03;95432.41;4379677;32;20297;-63
2022/12/03 02:39:54;;;;;;;2.83;2.73;;;;;;;3.55;88.82;95434.59;4381463;32;20288;-61
2022/12/03 02:42:34;;;;;;;4.53;4.13;;;;;;;3.52;88.06;95428.06;4371434;32;20281;-61
2022/12/03 02:45:04;;;;;;;3.03;2.87;;;;;;;3.39;89.22;95423.16;4352869;32;20280;-61
2022/12/03 02:47:33;;;;;;;4.67;4.37;;;;;;;3.41;89.26;95424.50;4372138;32;20352;-60
2022/12/03 02:49:59;;;;;;;3.20;3.10;;;;;;;3.47;88.95;95427.19;4343670;32;20293;-68
2022/12/03 02:52:26;;;;;;;2.27;2.17;;;;;;;3.36;89.46;95432.31;4366522;32;20284;-61
2022/12/03 02:54:53;;;;;;;3.20;3.00;;;;;;;3.19;90.02;95425.56;4347209;32;20464;-60
2022/12/03 02:57:22;;;;;;;2.60;2.50;;;;;;;3.21;90.16;95419.03;4352252;32;23237;-60
2022/12/03 02:59:49;;;;;;;3.13;2.97;;;;;;;3.09;90.80;95423.62;4365679;32;26950;-60
2022/12/03 03:02:20;;;;;;;2.90;2.80;;;;;;;3.47;89.86;95416.72;4352007;32;20288;-61
2022/12/03 03:04:50;;;;;;;4.13;3.83;;;;;;;3.48;89.33;95416.47;4353693;32;20285;-60
2022/12/03 03:07:16;;;;;;;3.87;3.03;;;;;;;3.35;89.54;95416.81;4354448;32;20289;-61
2022/12/03 03:09:46;;;;;;;3.30;3.10;;;;;;;3.08;91.13;95427.28;4369923;32;20322;-60
2022/12/03 03:12:12;;;;;;;2.57;2.37;;;;;;;3.05;91.35;95433.78;4376359;32;20293;-60
2022/12/03 03:14:38;;;;;;;3.93;2.30;;;;;;;3.29;90.44;95431.72;4332335;32;20344;-60
2022/12/03 03:17:04;;;;;;;3.67;2.93;;;;;;;3.35;89.76;95430.72;4361486;32;20278;-61
2022/12/03 03:19:31;;;;;;;3.50;3.30;;;;;;;3.32;90.60;95426.00;4365972;32;20212;-65
2022/12/03 03:22:00;;;;;;;4.37;4.17;;;;;;;3.48;89.94;95426.94;4366206;32;20356;-60
2022/12/03 03:24:27;;;;;;;3.20;3.03;;;;;;;3.47;89.86;95421.94;4308713;32;20273;-61
2022/12/03 03:26:54;;;;;;;3.90;3.67;;;;;;;3.54;89.49;95420.72;4349874;32;20330;-61
2022/12/03 03:29:21;;;;;;;3.00;2.90;;;;;;;3.52;89.71;95414.16;4341303;32;20381;-60
2022/12/03 03:31:51;;;;;;;4.50;3.83;;;;;;;3.60;89.19;95414.47;4366036;32;20335;-61
2022/12/03 03:34:17;;;;;;;3.40;3.10;;;;;;;3.34;89.96;95405.53;4356900;32;20392;-61
2022/12/03 03:36:44;;;;;;;4.73;4.37;;;;;;;3.08;91.40;95407.09;4323081;32;20327;-61
2022/12/03 03:39:11;;;;;;;3.57;3.37;;;;;;;3.28;91.25;95411.00;4351316;32;20189;-61
2022/12/03 03:41:39;;;;;;;3.50;3.30;;;;;;;3.05;91.74;95414.66;4381092;32;20288;-61
2022/12/03 03:44:07;;;;;;;8.07;3.90;;;;;;;3.23;91.39;95410.94;4342603;32;20297;-61
2022/12/03 03:46:35;;;;;;;3.03;2.93;;;;;;;3.32;91.40;95412.87;4356377;32;20308;-61
2022/12/03 03:49:03;;;;;;;4.07;3.77;;;;;;;3.11;91.84;95408.44;4357449;32;20293;-60
2022/12/03 03:51:37;;;;;;;4.03;3.67;;;;;;;3.37;90.67;95407.69;4358986;32;20280;-60
2022/12/03 03:54:06;;;;;;;3.17;2.90;;;;;;;3.41;90.38;95402.75;4351501;32;20280;-61
2022/12/03 03:56:32;;;;;;;4.83;4.53;;;;;;;3.36;89.62;95415.78;4354432;32;20281;-61
2022/12/03 03:59:02;;;;;;;2.77;2.67;;;;;;;3.10;90.96;95410.28;4355695;32;20308;-61
2022/12/03 04:01:28;;;;;;;2.50;2.30;;;;;;;2.94;91.66;95415.53;4335390;32;20300;-62
2022/12/03 04:03:54;;;;;;;4.33;2.60;;;;;;;3.04;91.83;95410.44;4368825;32;20341;-61
2022/12/03 04:06:28;;;;;;;2.90;2.80;;;;;;;3.13;91.49;95414.22;4368325;32;20356;-62
2022/12/03 04:08:54;;;;;;;2.40;2.30;;;;;;;3.19;91.04;95409.84;4376042;32;20181;-61
2022/12/03 04:14:05;;;;;;;5.03;2.80;;;;;;;2.99;91.81;95415.63;4346699;32;20288;-63
2022/12/03 04:16:33;;;;;;;3.23;2.97;;;;;;;2.96;91.78;95408.25;4364878;32;20291;-62
2022/12/03 04:19:01;;;;;;;2.57;2.47;;;;;;;2.76;91.82;95417.41;4353220;32;20363;-62
2022/12/03 04:24:12;;;;;;;2.70;2.50;;;;;;;2.96;91.75;95408.25;4372977;32;20298;-61
2022/12/03 04:29:24;;;;;;;2.57;2.47;;;;;;;2.74;92.40;95395.91;4351004;32;20277;-60
2022/12/03 04:37:18;;;;;;;1.00;1.00;;;;;;;2.83;92.07;95408.59;4370814;32;20358;-61
2022/12/03 04:39:47;;;;;;;2.77;2.57;;;;;;;2.91;92.06;95418.69;4337348;32;20295;-61
2022/12/03 04:42:14;;;;;;;2.17;1.97;;;;;;;2.66;92.98;95409.44;4346069;32;20292;-61
2022/12/03 04:44:42;;;;;;;1.70;1.60;;;;;;;2.82;91.73;95414.88;4333018;32;20309;-61
2022/12/03 04:47:11;;;;;;;3.10;2.80;;;;;;;2.91;91.99;95427.31;4359419;32;20292;-60
2022/12/03 04:49:42;;;;;;;2.63;2.50;;;;;;;2.70;92.16;95422.84;4359545;32;20356;-60
2022/12/03 04:52:11;;;;;;;1.87;1.77;;;;;;;2.69;92.40;95427.28;4368025;32;20292;-60
2022/12/03 04:54:39;;;;;;;5.50;3.87;;;;;;;2.87;91.53;95420.19;4323963;32;20324;-60
2022/12/03 04:57:08;;;;;;;2.57;2.47;;;;;;;2.95;90.78;95425.00;4335487;32;20286;-61
2022/12/03 04:59:36;;;;;;;3.23;3.13;;;;;;;3.02;90.81;95413.31;4360487;32;20314;-60
2022/12/03 05:02:04;;;;;;;2.30;2.20;;;;;;;2.87;90.67;95420.97;4388977;32;20280;-60
2022/12/03 05:04:30;;;;;;;2.77;2.57;;;;;;;2.73;91.46;95415.28;4360633;32;20311;-61
2022/12/03 05:06:57;;;;;;;2.10;2.00;;;;;;;2.87;91.53;95414.94;4367588;32;20348;-61
2022/12/03 05:09:26;;;;;;;1.73;1.70;;;;;;;2.86;91.41;95418.59;4363963;32;20359;-61
2022/12/03 05:11:54;;;;;;;3.60;1.73;;;;;;;2.94;91.41;95418.16;4368675;32;20374;-61
2022/12/03 05:14:24;;;;;;;3.90;3.60;;;;;;;2.73;91.55;95417.91;4363627;32;20281;-61
2022/12/03 05:16:50;;;;;;;2.23;2.10;;;;;;;2.61;92.80;95411.19;4374887;32;20396;-61
2022/12/03 05:19:18;;;;;;;2.87;2.77;;;;;;;2.65;92.60;95420.16;4381826;32;20284;-61
2022/12/03 05:21:45;;;;;;;1.97;1.93;;;;;;;2.72;92.77;95424.16;4378612;32;20345;-61
2022/12/03 05:24:12;;;;;;;5.00;3.57;;;;;;;2.90;91.99;95419.72;4356848;32;20307;-61
2022/12/03 05:26:41;;;;;;;3.17;3.00;;;;;;;2.88;91.74;95416.53;4319922;32;20357;-60
2022/12/03 05:29:07;;;;;;;1.30;1.30;;;;;;;3.12;91.07;95422.34;4345168;32;20298;-60
2022/12/03 05:31:33;;;;;;;2.73;2.63;;;;;;;3.21;90.50;95423.50;4359089;32;20288;-61
2022/12/03 05:33:59;;;;;;;3.83;3.57;;;;;;;2.97;91.25;95430.78;4356858;32;20303;-61
2022/12/03 05:36:30;;;;;;;3.00;2.80;;;;;;;2.96;91.62;95435.22;4331679;32;20193;-61
2022/12/03 05:38:57;;;;;;;3.00;2.67;;;;;;;2.71;92.40;95430.44;4357407;32;20289;-60
2022/12/03 05:44:09;;;;;;;2.83;2.73;;;;;;;2.85;92.63;95430.13;4359379;32;20338;-61
2022/12/03 05:46:35;;;;;;;3.47;2.33;;;;;;;3.02;92.29;95426.41;4343242;32;20299;-61
2022/12/03 05:49:00;;;;;;;3.67;3.47;;;;;;;3.15;91.81;95422.63;4385045;32;20291;-61
2022/12/03 05:51:26;;;;;;;4.37;3.33;;;;;;;3.05;91.90;95427.75;4365967;32;20334;-61
2022/12/03 05:53:51;;;;;;;1.80;1.80;;;;;;;2.87;92.50;95428.06;4347721;32;20272;-61
2022/12/03 05:56:17;;;;;;;1.77;1.67;;;;;;;2.82;93.48;95436.63;4369604;32;20254;-61
2022/12/03 05:58:43;;;;;;;1.57;1.47;;;;;;;2.94;92.83;95434.69;4383158;32;20208;-60
2022/12/03 06:01:09;;;;;;;3.40;3.13;;;;;;;3.12;91.68;95440.69;4374021;32;20327;-61
2022/12/03 06:03:35;;;;;;;3.23;3.03;;;;;;;3.37;90.82;95436.53;4370532;32;20185;-61
2022/12/03 06:06:00;;;;;;;8.97;3.43;;;;;;;3.44;90.35;95439.75;4366975;32;20299;-61
2022/12/03 06:08:27;;;;;;;2.57;2.47;;;;;;;3.51;90.00;95430.91;4374994;32;20192;-61
2022/12/03 06:10:53;;;;;;;5.30;4.87;;;;;;;3.55;89.54;95421.50;4356483;32;20207;-61
2022/12/03 06:13:20;;;;;;;2.73;2.63;;;;;;;3.56;89.72;95429.13;4360021;32;20450;-60
2022/12/03 06:15:50;;;;;;;2.57;2.47;;;;;;;3.03;91.45;95424.59;4384099;32;20277;-61
2022/12/03 06:18:16;;;;;;;3.10;2.90;;;;;;;3.19;91.27;95425.56;4350827;32;20310;-61
2022/12/03 06:20:45;;;;;;;4.20;3.90;;;;;;;3.18;91.16;95429.22;4367150;32;20276;-61
2022/12/03 06:23:11;;;;;;;3.73;3.53;;;;;;;3.03;91.74;95416.72;4336079;32;20280;-61
2022/12/03 06:25:38;;;;;;;4.07;3.80;;;;;;;2.91;92.33;95421.28;4350504;32;20312;-61
2022/12/03 06:28:05;;;;;;;3.47;3.17;;;;;;;2.90;92.53;95430.19;4360860;32;20281;-61
2022/12/03 06:30:33;;;;;;;2.77;2.57;;;;;;;2.98;92.07;95417.44;4349825;32;20285;-61
2022/12/03 06:32:58;;;;;;;6.53;4.80;;;;;;;3.12;92.12;95417.09;4373699;32;20279;-61
2022/12/03 06:35:25;;;;;;;4.50;4.17;;;;;;;3.19;91.80;95410.63;4381478;32;20308;-61
2022/12/03 06:37:51;;;;;;;2.20;1.93;;;;;;;3.35;90.56;95416.81;4367116;32;20240;-61
2022/12/03 06:40:18;;;;;;;3.77;3.07;;;;;;;3.36;90.44;95419.22;4336202;32;20295;-61
2022/12/03 06:42:47;;;;;;;2.57;2.40;;;;;;;3.01;91.36;95431.91;4360759;32;20284;-61
2022/12/03 06:45:13;;;;;;;3.97;3.77;;;;;;;3.09;91.86;95418.38;4362052;32;20348;-61
2022/12/03 06:47:40;;;;;;;4.27;4.07;;;;;;;3.01;92.06;95422.19;4348238;32;20438;-61
2022/12/03 06:50:08;;;;;;;3.93;3.73;;;;;;;2.66;93.06;95414.69;4365177;32;20284;-61
2022/12/03 06:52:35;;;;;;;3.33;3.23;;;;;;;2.92;93.03;95412.37;4330852;32;20281;-61
2022/12/03 06:55:00;;;;;;;3.80;3.53;;;;;;;2.99;92.34;95418.25;4353803;32;20315;-61
2022/12/03 06:57:27;;;;;;;3.57;3.33;;;;;;;2.90;92.92;95410.03;4375004;32;20371;-60
2022/12/03 06:59:54;;;;;;;3.73;3.43;;;;;;;3.07;91.91;95409.97;4383292;32;20277;-61
2022/12/03 07:02:20;;;;;;;4.93;3.87;;;;;;;2.94;92.00;95410.31;4380775;32;20367;-61
2022/12/03 07:04:46;;;;;;;3.93;2.60;;;;;;;3.10;91.94;95409.47;4357142;32;20296;-61
2022/12/03 07:07:13;;;;;;;3.90;3.70;;;;;;;3.08;91.72;95404.47;4369999;32;20272;-60
2022/12/03 07:09:41;;;;;;;4.30;3.90;;;;;;;3.21;91.53;95405.13;4359968;32;20359;-61
2022/12/03 07:12:09;;;;;;;3.80;3.47;;;;;;;3.01;91.77;95408.31;4335895;32;20323;-61
2022/12/03 07:14:35;;;;;;;4.70;4.33;;;;;;;2.92;92.16;95407.94;4356318;32;20285;-60
2022/12/03 07:17:03;;;;;;;3.20;3.00;;;;;;;2.66;92.65;95406.81;4364916;32;20281;-61
2022/12/03 07:19:31;;;;;;;2.33;2.23;;;;;;;3.03;92.40;95408.88;4361042;32;20285;-61
2022/12/03 07:21:57;;;;;;;3.57;3.37;;;;;;;3.29;91.43;95416.00;4345070;32;20334;-60
2022/12/03 07:24:24;;;;;;;3.57;3.27;;;;;;;3.22;91.29;95420.63;4341618;32;20284;-61
2022/12/03 07:26:52;;;;;;;4.07;3.87;;;;;;;3.40;90.74;95415.06;4329980;32;20407;-61
2022/12/03 07:29:21;;;;;;;2.60;2.50;;;;;;;3.30;90.59;95416.78;4368152;32;20350;-60
2022/12/03 07:31:49;;;;;;;3.63;3.23;;;;;;;3.18;90.63;95410.88;4379541;32;20341;-61
2022/12/03 07:34:17;;;;;;;3.13;3.00;;;;;;;3.08;91.41;95414.97;4356443;32;20273;-61
2022/12/03 07:36:44;;;;;;;3.87;3.50;;;;;;;3.07;91.60;95413.37;4379744;32;20285;-61
2022/12/03 07:39:09;;;;;;;4.20;3.97;;;;;;;3.19;91.72;95412.44;4348317;32;20282;-61
2022/12/03 07:41:35;;;;;;;3.47;3.20;;;;;;;3.03;91.42;95409.66;4365594;32;20364;-61
2022/12/03 07:44:01;;;;;;;2.13;2.00;;;;;;;3.38;90.11;95411.88;4371811;32;20207;-61
2022/12/03 07:46:26;;;;;;;3.30;3.10;;;;;;;3.26;90.33;95408.62;4380836;32;20356;-61
2022/12/03 07:48:53;;;;;;;2.70;2.57;;;;;;;3.07;91.11;95408.12;4352152;32;20202;-62
2022/12/03 07:51:19;;;;;;;3.93;3.63;;;;;;;3.25;91.07;95416.72;4327648;32;20224;-61
2022/12/03 07:53:46;;;;;;;4.87;4.47;;;;;;;3.15;91.54;95416.59;4388397;32;20287;-60
2022/12/03 07:56:11;;;;;;;3.37;2.93;;;;;;;3.12;91.45;95417.09;4358226;32;20284;-61
2022/12/03 07:58:39;;;;;;;3.47;3.27;;;;;;;3.15;90.86;95417.38;4341772;32;20407;-60
2022/12/03 08:01:04;;;;;;;4.83;4.43;;;;;;;3.12;91.17;95418.66;4373669;32;20189;-61
2022/12/03 08:03:32;;;;;;;3.20;3.10;;;;;;;3.32;90.73;95412.87;4365676;32;20319;-61
2022/12/03 08:06:01;;;;;;;3.30;3.03;;;;;;;3.15;90.74;95406.91;4372886;32;20199;-61
2022/12/03 08:08:30;;;;;;;3.03;2.90;;;;;;;3.19;90.60;95409.84;4371862;32;20332;-61
2022/12/03 08:10:56;;;;;;;5.70;5.20;;;;;;;3.09;90.58;95411.31;4352111;32;20299;-60
2022/12/03 08:13:23;;;;;;;3.57;3.27;;;;;;;3.19;91.13;95415.06;4380702;32;20269;-61
2022/12/03 08:16:00;;;;;;;2.33;2.23;;;;;;;2.89;91.65;95412.87;4360984;32;20303;-61
2022/12/03 08:18:28;;;;;;;3.00;2.80;;;;;;;2.84;92.29;95412.81;4316832;32;20379;-61
2022/12/03 08:20:53;;;;;;;5.30;4.20;;;;;;;2.90;92.54;95410.03;4360181;32;20319;-61
2022/12/03 08:23:24;;;;;;;3.43;3.23;;;;;;;2.81;92.68;95413.28;4374555;32;20344;-61
2022/12/03 08:25:51;;;;;;;7.00;3.80;;;;;;;3.07;91.59;95412.59;4349305;32;20346;-61
2022/12/03 08:28:27;;;;;;;1.53;1.53;;;;;;;3.07;91.54;95399.47;4375962;32;20319;-61
2022/12/03 08:31:18;;;;;;;4.97;4.60;;;;;;;3.16;91.32;95398.00;4368456;32;20366;-61
2022/12/03 08:33:56;;;;;;;3.10;2.93;;;;;;;3.39;90.52;95400.38;4379270;32;20280;-61
2022/12/03 08:36:25;;;;;;;3.57;3.37;;;;;;;3.62;89.38;95403.75;4379616;32;20281;-60
2022/12/03 08:39:15;;;;;;;4.20;3.87;;;;;;;3.55;89.23;95405.75;4350905;32;20281;-60
2022/12/03 08:44:46;;;;;;;4.43;4.13;;;;;;;3.53;89.16;95407.88;4366765;32;20359;-61
2022/12/03 08:47:22;;;;;;;7.43;4.03;;;;;;;3.53;89.58;95419.16;4344689;32;20276;-60
2022/12/03 08:50:26;;;;;;;2.80;2.70;;;;;;;3.40;89.91;95420.31;4355175;32;20312;-61
2022/12/03 08:52:52;;;;;;;8.23;4.23;;;;;;;3.49;89.31;95412.81;4353251;32;20293;-61
2022/12/03 08:55:47;;;;;;;4.13;3.83;;;;;;;3.40;89.34;95415.06;4384776;32;20369;-61
2022/12/03 08:58:35;;;;;;;5.87;4.20;;;;;;;3.62;89.55;95415.03;4304343;32;20284;-61
2022/12/03 09:01:43;;;;;;;3.80;3.50;;;;;;;3.68;88.74;95426.38;4313277;33;20349;-61
2022/12/03 09:04:35;;;;;;;3.23;3.00;;;;;;;3.72;88.19;95414.34;4364859;32;20269;-60
2022/12/03 09:07:02;;;;;;;4.93;4.30;;;;;;;3.45;89.13;95412.50;4350816;32;20285;-62
2022/12/03 09:09:48;;;;;;;4.00;3.70;;;;;;;3.64;88.28;95409.53;4366697;32;20296;-61
2022/12/03 09:12:15;;;;;;;2.33;2.23;;;;;;;3.49;88.92;95402.31;4351805;32;20355;-61
2022/12/03 09:14:41;;;;;;;4.20;3.87;;;;;;;3.27;89.58;95412.81;4378388;32;20280;-61
2022/12/03 09:17:08;;;;;;;2.93;2.73;;;;;;;3.15;89.89;95406.09;4365672;32;20329;-61
2022/12/03 09:19:35;;;;;;;2.77;2.57;;;;;;;3.30;89.94;95406.31;4349221;32;20321;-61
2022/12/03 09:22:02;;;;;;;2.77;1.60;;;;;;;3.33;89.16;95413.66;4371127;32;20185;-61
2022/12/03 09:24:32;;;;;;;3.30;3.10;;;;;;;3.53;88.81;95420.97;4368328;32;20288;-61
2022/12/03 09:26:58;;;;;;;2.57;2.43;;;;;;;3.46;88.44;95413.28;4359324;32;20272;-61
2022/12/03 09:29:25;;;;;;;2.27;2.17;;;;;;;3.50;88.92;95413.59;4343458;32;20464;-61
2022/12/03 09:31:52;;;;;;;2.87;2.73;;;;;;;3.53;88.76;95413.13;4366254;32;20281;-60
2022/12/03 09:34:18;;;;;;;2.03;2.00;;;;;;;3.78;88.19;95416.75;4372671;32;20319;-61
2022/12/03 09:36:43;;;;;;;3.27;3.07;;;;;;;3.61;88.02;95417.91;4350647;32;20284;-61
2022/12/03 09:39:10;;;;;;;3.83;3.00;;;;;;;3.71;87.65;95404.91;4364172;32;20295;-61
2022/12/03 09:41:38;;;;;;;2.07;1.97;;;;;;;3.76;87.19;95407.56;4362037;32;20205;-61
2022/12/03 09:44:08;;;;;;;5.97;3.23;;;;;;;3.88;87.08;95399.53;4348689;32;20299;-61
2022/12/03 09:46:37;;;;;;;3.40;3.10;;;;;;;3.64;87.13;95394.59;4366642;32;20294;-60
2022/12/03 09:49:05;;;;;;;3.10;2.93;;;;;;;3.86;87.36;95401.62;4358320;32;20311;-65
2022/12/03 09:51:34;;;;;;;3.63;3.40;;;;;;;3.89;86.62;95396.66;4383497;32;20296;-61
2022/12/03 09:54:03;;;;;;;3.77;3.47;;;;;;;3.95;86.86;95395.66;4371828;32;20277;-61
2022/12/03 09:56:29;;;;;;;2.77;2.57;;;;;;;3.86;85.81;95386.66;4363891;32;20352;-61
2022/12/03 09:58:56;;;;;;;3.33;2.60;;;;;;;3.67;86.58;95390.69;4360053;32;20350;-61
2022/12/03 10:01:23;;;;;;;2.40;2.30;;;;;;;3.58;87.02;95389.53;4341732;32;21436;-61
2022/12/03 10:03:53;;;;;;;3.33;3.10;;;;;;;3.40;87.58;95377.56;4362641;32;20289;-61
2022/12/03 10:06:23;;;;;;;1.97;1.83;;;;;;;3.11;89.43;95379.63;4354257;32;20367;-61
2022/12/03 10:08:53;;;;;;;3.03;2.40;;;;;;;3.36;88.30;95368.59;4362631;32;20327;-61
2022/12/03 10:11:23;;;;;;;1.83;1.83;;;;;;;3.59;88.25;95364.91;4370318;32;20280;-61
2022/12/03 10:14:15;;;;;;;3.67;3.07;;;;;;;3.70;88.05;95362.13;4323662;32;20288;-61
2022/12/03 10:16:42;;;;;;;2.80;2.63;;;;;;;3.76;87.99;95361.13;4370917;32;20292;-61
2022/12/03 10:19:17;;;;;;;4.07;2.70;;;;;;;3.60;87.85;95362.03;4352021;32;20350;-60
2022/12/03 10:21:43;;;;;;;4.20;3.67;;;;;;;3.68;87.49;95366.84;4382810;32;20296;-61
2022/12/03 10:24:38;;;;;;;2.37;2.27;;;;;;;3.70;87.71;95367.37;4371598;32;20333;-61
2022/12/03 10:27:29;;;;;;;2.70;2.60;;;;;;;3.49;88.25;95363.00;4352921;32;20342;-61
2022/12/03 10:30:02;;;;;;;3.30;3.00;;;;;;;3.34;89.14;95355.75;4364166;32;20320;-60
2022/12/03 10:32:48;;;;;;;2.70;2.60;;;;;;;3.36;88.87;95340.56;4338685;32;20285;-61
2022/12/03 10:35:25;;;;;;;4.53;4.13;;;;;;;3.37;89.17;95341.34;4363215;32;20281;-61
2022/12/03 10:38:02;;;;;;;2.60;2.50;;;;;;;3.29;89.33;95337.37;4346634;32;20348;-61
2022/12/03 10:40:37;;;;;;;2.27;2.17;;;;;;;3.27;89.59;95344.69;4352304;32;20280;-61
2022/12/03 10:43:39;;;;;;;4.27;4.07;;;;;;;3.35;89.27;95352.09;4347491;32;20356;-61
2022/12/03 10:46:24;;;;;;;3.10;2.90;;;;;;;3.52;88.51;95348.59;4364465;32;20279;-61
2022/12/03 10:49:28;;;;;;;3.53;3.23;;;;;;;3.74;87.87;95329.09;4335354;32;20383;-61
2022/12/03 10:51:55;;;;;;;3.90;3.57;;;;;;;3.32;88.65;95333.47;4269012;33;20293;-61
2022/12/03 10:54:25;;;;;;;3.03;2.90;;;;;;;3.26;87.94;95318.72;4303163;33;20362;-61
2022/12/03 10:56:52;;;;;;;5.93;4.13;;;;;;;3.10;88.62;95320.38;4331024;32;20355;-61
2022/12/03 10:59:21;;;;;;;4.27;3.67;;;;;;;3.32;88.81;95320.34;4336345;32;20356;-61
2022/12/03 11:01:49;;;;;;;3.43;3.23;;;;;;;3.40;88.82;95323.31;4364012;32;20280;-61
2022/12/03 11:04:39;;;;;;;2.93;2.73;;;;;;;3.70;87.57;95319.38;4372377;32;20300;-61
2022/12/03 11:07:20;;;;;;;4.07;3.73;;;;;;;3.56;88.25;95313.72;4375031;32;20292;-61
2022/12/03 11:09:51;;;;;;;4.07;3.77;;;;;;;3.74;86.84;95308.13;4374710;32;20345;-61
2022/12/03 11:12:25;;;;;;;2.30;2.23;;;;;;;3.33;87.96;95317.44;4357422;32;20281;-61
2022/12/03 11:15:13;;;;;;;4.53;4.23;;;;;;;3.34;88.31;95313.78;4339959;32;20320;-61
2022/12/03 11:17:46;;;;;;;3.07;2.97;;;;;;;3.38;87.77;95312.28;4328167;32;20286;-61
2022/12/03 11:20:33;;;;;;;3.50;3.30;;;;;;;3.35;88.23;95311.97;4357187;32;20309;-61
2022/12/03 11:22:59;;;;;;;2.47;2.37;;;;;;;3.23;88.84;95306.09;4366318;32;20304;-61
2022/12/03 11:25:27;;;;;;;5.00;4.60;;;;;;;3.41;88.22;95310.97;4379790;32;20302;-61
2022/12/03 11:28:12;;;;;;;14.40;4.50;;;;;;;3.35;88.42;95312.75;4360091;32;20262;-61
2022/12/03 11:31:02;;;;;;;3.73;3.53;;;;;;;3.31;88.96;95316.94;4341163;32;20320;-61
2022/12/03 11:33:35;;;;;;;3.43;3.23;;;;;;;3.41;88.74;95322.25;4330557;32;20285;-61
2022/12/03 11:36:12;;;;;;;4.67;4.33;;;;;;;3.54;88.04;95315.81;4358381;32;20319;-62
2022/12/03 11:38:55;;;;;;;5.60;4.23;;;;;;;3.35;88.23;95325.88;4357513;32;20371;-61
2022/12/03 11:41:34;;;;;;;5.00;4.60;;;;;;;3.39;88.44;95319.09;4366737;32;20474;-61
2022/12/03 11:44:34;;;;;;;4.13;3.93;;;;;;;3.25;88.55;95317.91;4364628;32;20280;-63
2022/12/03 11:47:14;;;;;;;3.33;3.13;;;;;;;2.97;89.35;95321.53;4360298;32;20295;-61
2022/12/03 11:49:46;;;;;;;3.70;3.50;;;;;;;2.56;91.55;95315.03;4357161;32;20288;-61
2022/12/03 11:52:32;;;;;;;3.63;3.33;;;;;;;2.88;91.59;95317.00;4306823;32;20352;-61
2022/12/03 11:55:12;;;;;;;4.63;4.33;;;;;;;2.88;91.25;95315.16;4328897;32;20303;-62
2022/12/03 11:57:50;;;;;;;4.77;3.93;;;;;;;3.01;90.93;95316.59;4336885;32;20332;-61
2022/12/03 12:00:51;;;;;;;4.43;4.20;;;;;;;3.15;90.53;95315.19;4345725;32;20276;-61
2022/12/03 12:03:22;;;;;;;2.33;2.23;;;;;;;2.92;91.00;95318.06;4350034;32;20362;-61
2022/12/03 12:06:19;;;;;;;4.60;4.30;;;;;;;3.00;90.57;95309.78;4366109;32;20333;-61
2022/12/03 12:08:58;;;;;;;1.97;1.93;;;;;;;3.05;90.52;95309.84;4361908;32;20305;-62
2022/12/03 12:11:42;;;;;;;3.40;3.17;;;;;;;3.06;90.59;95312.22;4342543;32;20276;-61
2022/12/03 12:14:25;;;;;;;4.23;3.93;;;;;;;3.03;90.36;95304.06;4341932;32;20384;-61
2022/12/03 12:16:57;;;;;;;3.37;3.17;;;;;;;3.20;90.22;95296.09;4349547;32;20372;-61
2022/12/03 12:19:46;;;;;;;3.47;3.37;;;;;;;3.04;90.27;95306.44;4367111;32;20277;-61